sensor_id;sensor_type;location;lat;lon;timestamp;temperature;humidity
68274;SHT30;55104;47.356;19.448;2023-06-26T00:02:42;17.90;88.33
68274;SHT30;55104;47.356;19.448;2023-06-26T00:05:44;17.92;88.15
68274;SHT30;55104;47.356;19.448;2023-06-26T00:08:46;17.94;88.35
68274;SHT30;55104;47.356;19.448;2023-06-26T00:11:48;17.96;88.31
68274;SHT30;55104;47.356;19.448;2023-06-26T00:14:50;17.97;88.41
68274;SHT30;55104;47.356;19.448;2023-06-26T00:17:52;18.06;88.40
68274;SHT30;55104;47.356;19.448;2023-06-26T00:20:54;18.07;88.17
68274;SHT30;55104;47.356;19.448;2023-06-26T00:23:56;18.14;88.26
68274;SHT30;55104;47.356;19.448;2023-06-26T00:26:58;18.18;88.08
68274;SHT30;55104;47.356;19.448;2023-06-26T00:30:00;18.14;87.94
68274;SHT30;55104;47.356;19.448;2023-06-26T00:33:03;18.17;87.59
68274;SHT30;55104;47.356;19.448;2023-06-26T00:36:06;18.18;87.37
68274;SHT30;55104;47.356;19.448;2023-06-26T00:39:08;18.24;87.44
68274;SHT30;55104;47.356;19.448;2023-06-26T00:42:10;18.28;87.52
68274;SHT30;55104;47.356;19.448;2023-06-26T00:45:12;18.37;88.00
68274;SHT30;55104;47.356;19.448;2023-06-26T00:48:14;18.41;87.35
68274;SHT30;55104;47.356;19.448;2023-06-26T00:51:16;18.44;86.88
68274;SHT30;55104;47.356;19.448;2023-06-26T00:54:19;18.47;86.48
68274;SHT30;55104;47.356;19.448;2023-06-26T00:57:23;18.55;86.36
68274;SHT30;55104;47.356;19.448;2023-06-26T01:00:27;18.59;86.17
68274;SHT30;55104;47.356;19.448;2023-06-26T01:03:32;18.71;86.13
68274;SHT30;55104;47.356;19.448;2023-06-26T01:06:34;18.82;85.44
68274;SHT30;55104;47.356;19.448;2023-06-26T01:09:37;18.86;85.20
68274;SHT30;55104;47.356;19.448;2023-06-26T01:12:39;18.83;85.59
68274;SHT30;55104;47.356;19.448;2023-06-26T01:15:41;18.83;85.94
68274;SHT30;55104;47.356;19.448;2023-06-26T01:18:44;18.86;86.07
68274;SHT30;55104;47.356;19.448;2023-06-26T01:21:48;18.92;86.26
68274;SHT30;55104;47.356;19.448;2023-06-26T01:25:21;18.93;86.27
68274;SHT30;55104;47.356;19.448;2023-06-26T01:28:25;18.89;86.64
68274;SHT30;55104;47.356;19.448;2023-06-26T01:31:29;18.88;86.73
68274;SHT30;55104;47.356;19.448;2023-06-26T01:34:32;18.83;86.90
68274;SHT30;55104;47.356;19.448;2023-06-26T01:37:35;18.79;87.44
68274;SHT30;55104;47.356;19.448;2023-06-26T01:40:38;18.75;87.35
68274;SHT30;55104;47.356;19.448;2023-06-26T01:47:03;18.76;87.51
68274;SHT30;55104;47.356;19.448;2023-06-26T01:50:09;18.82;87.44
68274;SHT30;55104;47.356;19.448;2023-06-26T01:53:18;18.77;87.59
68274;SHT30;55104;47.356;19.448;2023-06-26T01:56:23;18.69;87.78
68274;SHT30;55104;47.356;19.448;2023-06-26T01:59:28;18.72;87.66
68274;SHT30;55104;47.356;19.448;2023-06-26T02:02:30;18.75;87.63
68274;SHT30;55104;47.356;19.448;2023-06-26T02:05:33;18.73;87.33
68274;SHT30;55104;47.356;19.448;2023-06-26T02:08:35;18.82;87.12
68274;SHT30;55104;47.356;19.448;2023-06-26T02:11:37;18.88;86.36
68274;SHT30;55104;47.356;19.448;2023-06-26T02:14:39;18.92;86.94
68274;SHT30;55104;47.356;19.448;2023-06-26T02:17:41;18.89;86.39
68274;SHT30;55104;47.356;19.448;2023-06-26T02:20:43;18.91;86.57
68274;SHT30;55104;47.356;19.448;2023-06-26T02:23:45;18.93;87.00
68274;SHT30;55104;47.356;19.448;2023-06-26T02:26:47;18.95;86.75
68274;SHT30;55104;47.356;19.448;2023-06-26T02:29:51;18.92;86.88
68274;SHT30;55104;47.356;19.448;2023-06-26T02:32:53;18.92;86.77
68274;SHT30;55104;47.356;19.448;2023-06-26T02:35:55;18.92;86.87
68274;SHT30;55104;47.356;19.448;2023-06-26T02:38:57;18.95;86.75
68274;SHT30;55104;47.356;19.448;2023-06-26T02:42:00;18.98;86.18
68274;SHT30;55104;47.356;19.448;2023-06-26T02:45:02;18.96;85.92
68274;SHT30;55104;47.356;19.448;2023-06-26T02:48:06;18.98;86.05
68274;SHT30;55104;47.356;19.448;2023-06-26T02:51:08;18.95;86.10
68274;SHT30;55104;47.356;19.448;2023-06-26T02:54:11;18.91;85.93
68274;SHT30;55104;47.356;19.448;2023-06-26T02:57:14;18.86;86.22
68274;SHT30;55104;47.356;19.448;2023-06-26T03:00:17;18.77;86.59
68274;SHT30;55104;47.356;19.448;2023-06-26T03:03:23;18.71;86.56
68274;SHT30;55104;47.356;19.448;2023-06-26T03:06:25;18.65;86.53
68274;SHT30;55104;47.356;19.448;2023-06-26T03:09:28;18.61;86.54
68274;SHT30;55104;47.356;19.448;2023-06-26T03:12:30;18.56;86.91
68274;SHT30;55104;47.356;19.448;2023-06-26T03:15:32;18.49;87.11
68274;SHT30;55104;47.356;19.448;2023-06-26T03:18:34;18.47;87.26
68274;SHT30;55104;47.356;19.448;2023-06-26T03:21:36;18.45;87.11
68274;SHT30;55104;47.356;19.448;2023-06-26T03:24:38;18.51;86.93
68274;SHT30;55104;47.356;19.448;2023-06-26T03:27:41;18.51;87.07
68274;SHT30;55104;47.356;19.448;2023-06-26T03:30:43;18.61;86.80
68274;SHT30;55104;47.356;19.448;2023-06-26T03:33:45;18.68;86.42
68274;SHT30;55104;47.356;19.448;2023-06-26T03:36:47;18.75;85.98
68274;SHT30;55104;47.356;19.448;2023-06-26T03:39:49;18.88;85.44
68274;SHT30;55104;47.356;19.448;2023-06-26T03:42:51;18.93;84.22
68274;SHT30;55104;47.356;19.448;2023-06-26T03:45:54;19.04;84.69
68274;SHT30;55104;47.356;19.448;2023-06-26T03:48:56;19.16;84.95
68274;SHT30;55104;47.356;19.448;2023-06-26T03:51:58;19.21;84.72
68274;SHT30;55104;47.356;19.448;2023-06-26T03:55:00;19.28;84.09
68274;SHT30;55104;47.356;19.448;2023-06-26T03:58:02;19.41;83.73
68274;SHT30;55104;47.356;19.448;2023-06-26T04:01:04;19.47;84.24
68274;SHT30;55104;47.356;19.448;2023-06-26T04:04:06;19.54;84.41
68274;SHT30;55104;47.356;19.448;2023-06-26T04:07:08;19.64;84.55
68274;SHT30;55104;47.356;19.448;2023-06-26T04:10:11;19.83;84.46
68274;SHT30;55104;47.356;19.448;2023-06-26T04:13:14;19.97;83.67
68274;SHT30;55104;47.356;19.448;2023-06-26T04:16:16;19.99;83.65
68274;SHT30;55104;47.356;19.448;2023-06-26T04:19:18;20.03;83.54
68274;SHT30;55104;47.356;19.448;2023-06-26T04:22:20;20.10;83.43
68274;SHT30;55104;47.356;19.448;2023-06-26T04:25:22;20.16;82.62
68274;SHT30;55104;47.356;19.448;2023-06-26T04:28:24;20.23;82.69
68274;SHT30;55104;47.356;19.448;2023-06-26T04:31:26;20.24;83.51
68274;SHT30;55104;47.356;19.448;2023-06-26T04:34:29;20.34;82.67
68274;SHT30;55104;47.356;19.448;2023-06-26T04:37:34;20.33;82.34
68274;SHT30;55104;47.356;19.448;2023-06-26T04:40:36;20.40;82.36
68274;SHT30;55104;47.356;19.448;2023-06-26T04:43:39;20.57;81.74
68274;SHT30;55104;47.356;19.448;2023-06-26T04:46:40;20.75;80.78
68274;SHT30;55104;47.356;19.448;2023-06-26T04:49:43;21.02;81.73
68274;SHT30;55104;47.356;19.448;2023-06-26T04:52:48;21.36;78.99
68274;SHT30;55104;47.356;19.448;2023-06-26T04:55:51;21.68;76.05
68274;SHT30;55104;47.356;19.448;2023-06-26T04:58:53;21.98;73.56
68274;SHT30;55104;47.356;19.448;2023-06-26T05:01:55;22.41;71.73
68274;SHT30;55104;47.356;19.448;2023-06-26T05:04:57;22.78;70.37
68274;SHT30;55104;47.356;19.448;2023-06-26T05:08:13;23.12;69.55
68274;SHT30;55104;47.356;19.448;2023-06-26T05:11:16;23.16;69.57
68274;SHT30;55104;47.356;19.448;2023-06-26T05:14:18;23.04;69.20
68274;SHT30;55104;47.356;19.448;2023-06-26T05:17:20;23.06;68.95
68274;SHT30;55104;47.356;19.448;2023-06-26T05:20:22;24.21;66.25
68274;SHT30;55104;47.356;19.448;2023-06-26T05:23:25;24.84;64.24
68274;SHT30;55104;47.356;19.448;2023-06-26T05:26:27;25.22;63.12
68274;SHT30;55104;47.356;19.448;2023-06-26T05:29:33;24.81;62.86
68274;SHT30;55104;47.356;19.448;2023-06-26T05:32:40;24.08;63.46
68274;SHT30;55104;47.356;19.448;2023-06-26T05:35:44;24.84;60.16
68274;SHT30;55104;47.356;19.448;2023-06-26T05:38:47;25.83;58.11
68274;SHT30;55104;47.356;19.448;2023-06-26T05:41:50;26.46;55.85
68274;SHT30;55104;47.356;19.448;2023-06-26T05:44:53;26.72;54.52
68274;SHT30;55104;47.356;19.448;2023-06-26T05:47:55;26.77;54.06
68274;SHT30;55104;47.356;19.448;2023-06-26T05:50:57;27.37;53.79
68274;SHT30;55104;47.356;19.448;2023-06-26T05:53:59;27.65;53.59
68274;SHT30;55104;47.356;19.448;2023-06-26T05:57:02;27.48;53.22
68274;SHT30;55104;47.356;19.448;2023-06-26T06:00:06;28.01;52.33
68274;SHT30;55104;47.356;19.448;2023-06-26T06:03:16;27.93;52.96
68274;SHT30;55104;47.356;19.448;2023-06-26T06:06:18;27.67;52.41
68274;SHT30;55104;47.356;19.448;2023-06-26T06:09:20;27.14;52.56
68274;SHT30;55104;47.356;19.448;2023-06-26T06:12:22;27.07;52.49
68274;SHT30;55104;47.356;19.448;2023-06-26T06:15:24;26.80;54.12
68274;SHT30;55104;47.356;19.448;2023-06-26T06:18:26;26.41;55.35
68274;SHT30;55104;47.356;19.448;2023-06-26T06:21:28;26.07;57.53
68274;SHT30;55104;47.356;19.448;2023-06-26T06:24:30;25.67;57.74
68274;SHT30;55104;47.356;19.448;2023-06-26T06:27:32;25.52;58.22
68274;SHT30;55104;47.356;19.448;2023-06-26T06:30:34;25.24;59.55
68274;SHT30;55104;47.356;19.448;2023-06-26T06:33:46;24.76;58.50
68274;SHT30;55104;47.356;19.448;2023-06-26T06:36:48;24.80;59.69
68274;SHT30;55104;47.356;19.448;2023-06-26T06:39:50;24.90;60.67
68274;SHT30;55104;47.356;19.448;2023-06-26T06:42:52;25.15;59.89
68274;SHT30;55104;47.356;19.448;2023-06-26T06:45:54;25.28;59.70
68274;SHT30;55104;47.356;19.448;2023-06-26T06:48:56;25.26;60.11
68274;SHT30;55104;47.356;19.448;2023-06-26T06:51:58;25.38;59.58
68274;SHT30;55104;47.356;19.448;2023-06-26T06:55:00;25.54;59.51
68274;SHT30;55104;47.356;19.448;2023-06-26T06:58:07;25.66;58.25
68274;SHT30;55104;47.356;19.448;2023-06-26T07:01:09;25.74;58.35
68274;SHT30;55104;47.356;19.448;2023-06-26T07:04:11;25.77;57.49
68274;SHT30;55104;47.356;19.448;2023-06-26T07:07:13;25.63;56.86
68274;SHT30;55104;47.356;19.448;2023-06-26T07:10:16;25.83;58.09
68274;SHT30;55104;47.356;19.448;2023-06-26T07:13:18;26.02;58.61
68274;SHT30;55104;47.356;19.448;2023-06-26T07:16:20;25.93;57.81
68274;SHT30;55104;47.356;19.448;2023-06-26T07:19:23;26.21;57.76
68274;SHT30;55104;47.356;19.448;2023-06-26T07:22:25;26.45;58.15
68274;SHT30;55104;47.356;19.448;2023-06-26T07:25:27;26.48;56.59
68274;SHT30;55104;47.356;19.448;2023-06-26T07:28:29;26.72;56.64
68274;SHT30;55104;47.356;19.448;2023-06-26T07:31:31;26.83;55.85
68274;SHT30;55104;47.356;19.448;2023-06-26T07:34:33;26.82;54.50
68274;SHT30;55104;47.356;19.448;2023-06-26T07:37:35;26.79;53.32
68274;SHT30;55104;47.356;19.448;2023-06-26T07:40:37;26.91;56.03
68274;SHT30;55104;47.356;19.448;2023-06-26T07:43:40;27.06;54.46
68274;SHT30;55104;47.356;19.448;2023-06-26T07:46:42;27.20;56.20
68274;SHT30;55104;47.356;19.448;2023-06-26T07:49:44;27.34;54.44
68274;SHT30;55104;47.356;19.448;2023-06-26T07:52:46;27.21;53.08
68274;SHT30;55104;47.356;19.448;2023-06-26T07:55:48;26.86;53.67
68274;SHT30;55104;47.356;19.448;2023-06-26T07:58:50;26.94;55.02
68274;SHT30;55104;47.356;19.448;2023-06-26T08:01:53;27.25;55.12
68274;SHT30;55104;47.356;19.448;2023-06-26T08:04:56;27.46;53.89
68274;SHT30;55104;47.356;19.448;2023-06-26T08:07:58;27.31;52.14
68274;SHT30;55104;47.356;19.448;2023-06-26T08:11:00;27.58;54.29
68274;SHT30;55104;47.356;19.448;2023-06-26T08:14:02;27.70;53.01
68274;SHT30;55104;47.356;19.448;2023-06-26T08:17:04;27.72;52.72
68274;SHT30;55104;47.356;19.448;2023-06-26T08:20:06;28.00;52.57
68274;SHT30;55104;47.356;19.448;2023-06-26T08:23:10;28.20;50.88
68274;SHT30;55104;47.356;19.448;2023-06-26T08:26:13;27.93;51.62
68274;SHT30;55104;47.356;19.448;2023-06-26T08:29:15;28.15;54.07
68274;SHT30;55104;47.356;19.448;2023-06-26T08:32:17;28.38;54.00
68274;SHT30;55104;47.356;19.448;2023-06-26T08:35:19;28.53;51.07
68274;SHT30;55104;47.356;19.448;2023-06-26T08:38:21;28.59;53.37
68274;SHT30;55104;47.356;19.448;2023-06-26T08:41:23;28.59;47.86
68274;SHT30;55104;47.356;19.448;2023-06-26T08:44:25;28.10;48.62
68274;SHT30;55104;47.356;19.448;2023-06-26T08:47:28;28.15;51.73
68274;SHT30;55104;47.356;19.448;2023-06-26T08:50:34;28.15;50.81
68274;SHT30;55104;47.356;19.448;2023-06-26T08:53:47;28.24;50.15
68274;SHT30;55104;47.356;19.448;2023-06-26T08:56:51;28.00;52.40
68274;SHT30;55104;47.356;19.448;2023-06-26T08:59:53;27.66;50.72
68274;SHT30;55104;47.356;19.448;2023-06-26T09:02:55;27.90;51.71
68274;SHT30;55104;47.356;19.448;2023-06-26T09:05:58;28.08;51.97
68274;SHT30;55104;47.356;19.448;2023-06-26T09:09:00;28.56;52.38
68274;SHT30;55104;47.356;19.448;2023-06-26T09:12:02;28.58;50.55
68274;SHT30;55104;47.356;19.448;2023-06-26T09:15:06;28.73;50.82
68274;SHT30;55104;47.356;19.448;2023-06-26T09:18:08;29.31;50.83
68274;SHT30;55104;47.356;19.448;2023-06-26T09:21:11;28.53;49.84
68274;SHT30;55104;47.356;19.448;2023-06-26T09:24:13;28.55;51.43
68274;SHT30;55104;47.356;19.448;2023-06-26T09:27:16;28.47;50.07
68274;SHT30;55104;47.356;19.448;2023-06-26T09:30:18;29.07;49.63
68274;SHT30;55104;47.356;19.448;2023-06-26T09:33:21;29.18;48.84
68274;SHT30;55104;47.356;19.448;2023-06-26T09:36:23;29.37;47.90
68274;SHT30;55104;47.356;19.448;2023-06-26T09:39:26;29.43;47.47
68274;SHT30;55104;47.356;19.448;2023-06-26T09:42:29;29.25;50.38
68274;SHT30;55104;47.356;19.448;2023-06-26T09:45:35;28.68;49.36
68274;SHT30;55104;47.356;19.448;2023-06-26T09:48:41;28.49;49.12
68274;SHT30;55104;47.356;19.448;2023-06-26T09:51:43;28.86;49.62
68274;SHT30;55104;47.356;19.448;2023-06-26T09:54:46;28.95;47.04
68274;SHT30;55104;47.356;19.448;2023-06-26T09:57:49;28.88;48.45
68274;SHT30;55104;47.356;19.448;2023-06-26T10:00:52;29.16;48.15
68274;SHT30;55104;47.356;19.448;2023-06-26T10:03:55;29.72;47.57
68274;SHT30;55104;47.356;19.448;2023-06-26T10:07:05;29.54;46.56
68274;SHT30;55104;47.356;19.448;2023-06-26T10:10:08;29.55;46.09
68274;SHT30;55104;47.356;19.448;2023-06-26T10:13:15;30.06;47.33
68274;SHT30;55104;47.356;19.448;2023-06-26T10:16:26;30.18;45.80
68274;SHT30;55104;47.356;19.448;2023-06-26T10:19:32;30.14;46.10
68274;SHT30;55104;47.356;19.448;2023-06-26T10:22:43;30.43;43.96
68274;SHT30;55104;47.356;19.448;2023-06-26T10:25:48;30.44;45.55
68274;SHT30;55104;47.356;19.448;2023-06-26T10:28:53;30.49;44.05
68274;SHT30;55104;47.356;19.448;2023-06-26T10:31:58;30.58;43.20
68274;SHT30;55104;47.356;19.448;2023-06-26T10:35:05;30.47;44.53
68274;SHT30;55104;47.356;19.448;2023-06-26T10:38:07;30.16;45.46
68274;SHT30;55104;47.356;19.448;2023-06-26T10:41:10;30.45;44.29
68274;SHT30;55104;47.356;19.448;2023-06-26T10:44:17;30.54;45.43
68274;SHT30;55104;47.356;19.448;2023-06-26T10:47:32;30.61;44.00
68274;SHT30;55104;47.356;19.448;2023-06-26T10:50:35;29.38;45.52
68274;SHT30;55104;47.356;19.448;2023-06-26T10:53:40;28.96;45.87
68274;SHT30;55104;47.356;19.448;2023-06-26T10:56:44;28.63;47.11
68274;SHT30;55104;47.356;19.448;2023-06-26T10:59:46;29.00;47.14
68274;SHT30;55104;47.356;19.448;2023-06-26T11:02:51;28.59;46.94
68274;SHT30;55104;47.356;19.448;2023-06-26T11:06:13;28.66;45.82
68274;SHT30;55104;47.356;19.448;2023-06-26T11:09:18;28.99;45.33
68274;SHT30;55104;47.356;19.448;2023-06-26T11:15:45;30.12;45.64
68274;SHT30;55104;47.356;19.448;2023-06-26T11:18:47;30.44;45.19
68274;SHT30;55104;47.356;19.448;2023-06-26T11:21:49;31.04;44.31
68274;SHT30;55104;47.356;19.448;2023-06-26T11:24:53;31.41;45.25
68274;SHT30;55104;47.356;19.448;2023-06-26T11:27:56;31.62;43.69
68274;SHT30;55104;47.356;19.448;2023-06-26T11:30:58;31.99;44.35
68274;SHT30;55104;47.356;19.448;2023-06-26T11:34:03;31.89;43.25
68274;SHT30;55104;47.356;19.448;2023-06-26T11:37:05;31.80;42.28
68274;SHT30;55104;47.356;19.448;2023-06-26T11:40:18;30.96;43.01
68274;SHT30;55104;47.356;19.448;2023-06-26T11:43:21;30.79;44.12
68274;SHT30;55104;47.356;19.448;2023-06-26T11:46:23;30.33;44.14
68274;SHT30;55104;47.356;19.448;2023-06-26T11:49:25;30.67;44.24
68274;SHT30;55104;47.356;19.448;2023-06-26T11:52:28;30.82;42.31
68274;SHT30;55104;47.356;19.448;2023-06-26T11:55:40;30.47;41.76
68274;SHT30;55104;47.356;19.448;2023-06-26T11:59:05;30.30;43.96
68274;SHT30;55104;47.356;19.448;2023-06-26T12:02:13;30.17;44.69
68274;SHT30;55104;47.356;19.448;2023-06-26T12:05:16;29.83;43.99
68274;SHT30;55104;47.356;19.448;2023-06-26T12:08:19;29.43;44.88
68274;SHT30;55104;47.356;19.448;2023-06-26T12:11:23;29.85;44.58
68274;SHT30;55104;47.356;19.448;2023-06-26T12:14:26;30.07;46.00
68274;SHT30;55104;47.356;19.448;2023-06-26T12:17:30;30.10;44.40
68274;SHT30;55104;47.356;19.448;2023-06-26T12:20:32;30.96;44.01
68274;SHT30;55104;47.356;19.448;2023-06-26T12:23:40;31.19;42.65
68274;SHT30;55104;47.356;19.448;2023-06-26T12:26:49;31.13;44.18
68274;SHT30;55104;47.356;19.448;2023-06-26T12:29:52;31.31;42.68
68274;SHT30;55104;47.356;19.448;2023-06-26T12:32:55;30.85;41.42
68274;SHT30;55104;47.356;19.448;2023-06-26T12:35:57;30.98;42.88
68274;SHT30;55104;47.356;19.448;2023-06-26T12:39:00;31.13;44.23
68274;SHT30;55104;47.356;19.448;2023-06-26T12:42:02;30.96;42.35
68274;SHT30;55104;47.356;19.448;2023-06-26T12:45:11;29.99;43.21
68274;SHT30;55104;47.356;19.448;2023-06-26T12:48:38;29.92;43.32
68274;SHT30;55104;47.356;19.448;2023-06-26T12:51:45;30.28;43.28
68274;SHT30;55104;47.356;19.448;2023-06-26T12:54:52;29.99;43.19
68274;SHT30;55104;47.356;19.448;2023-06-26T12:57:54;30.24;44.03
68274;SHT30;55104;47.356;19.448;2023-06-26T13:00:56;30.54;43.17
68274;SHT30;55104;47.356;19.448;2023-06-26T13:03:59;30.52;42.83
68274;SHT30;55104;47.356;19.448;2023-06-26T13:07:01;30.52;42.46
68274;SHT30;55104;47.356;19.448;2023-06-26T13:10:04;31.02;43.11
68274;SHT30;55104;47.356;19.448;2023-06-26T13:13:07;30.65;43.24
68274;SHT30;55104;47.356;19.448;2023-06-26T13:16:10;30.55;41.90
68274;SHT30;55104;47.356;19.448;2023-06-26T13:19:12;30.51;41.31
68274;SHT30;55104;47.356;19.448;2023-06-26T13:22:14;30.76;40.00
68274;SHT30;55104;47.356;19.448;2023-06-26T13:25:16;30.34;41.09
68274;SHT30;55104;47.356;19.448;2023-06-26T13:28:18;31.04;44.78
68274;SHT30;55104;47.356;19.448;2023-06-26T13:31:20;31.29;44.62
68274;SHT30;55104;47.356;19.448;2023-06-26T13:34:24;30.76;44.09
68274;SHT30;55104;47.356;19.448;2023-06-26T13:37:26;30.64;44.86
68274;SHT30;55104;47.356;19.448;2023-06-26T13:40:28;30.26;45.03
68274;SHT30;55104;47.356;19.448;2023-06-26T13:43:30;30.00;45.12
68274;SHT30;55104;47.356;19.448;2023-06-26T13:46:32;29.86;45.43
68274;SHT30;55104;47.356;19.448;2023-06-26T13:49:34;29.73;45.64
68274;SHT30;55104;47.356;19.448;2023-06-26T13:52:36;29.58;45.81
68274;SHT30;55104;47.356;19.448;2023-06-26T13:55:40;29.34;46.21
68274;SHT30;55104;47.356;19.448;2023-06-26T13:58:42;29.24;46.90
68274;SHT30;55104;47.356;19.448;2023-06-26T14:01:45;29.44;46.66
68274;SHT30;55104;47.356;19.448;2023-06-26T14:04:47;29.95;45.06
68274;SHT30;55104;47.356;19.448;2023-06-26T14:07:49;30.07;44.54
68274;SHT30;55104;47.356;19.448;2023-06-26T14:10:51;30.34;45.05
68274;SHT30;55104;47.356;19.448;2023-06-26T14:13:53;30.38;44.27
68274;SHT30;55104;47.356;19.448;2023-06-26T14:16:55;30.58;45.30
68274;SHT30;55104;47.356;19.448;2023-06-26T14:19:58;30.55;43.44
68274;SHT30;55104;47.356;19.448;2023-06-26T14:23:01;30.69;43.14
68274;SHT30;55104;47.356;19.448;2023-06-26T14:26:03;30.85;41.59
68274;SHT30;55104;47.356;19.448;2023-06-26T14:29:06;30.85;41.49
68274;SHT30;55104;47.356;19.448;2023-06-26T14:32:08;30.83;41.60
68274;SHT30;55104;47.356;19.448;2023-06-26T14:35:10;30.82;43.63
68274;SHT30;55104;47.356;19.448;2023-06-26T14:38:12;30.88;43.63
68274;SHT30;55104;47.356;19.448;2023-06-26T14:41:14;30.82;42.96
68274;SHT30;55104;47.356;19.448;2023-06-26T14:44:17;31.09;42.84
68274;SHT30;55104;47.356;19.448;2023-06-26T14:47:19;31.20;41.77
68274;SHT30;55104;47.356;19.448;2023-06-26T14:50:21;31.09;41.57
68274;SHT30;55104;47.356;19.448;2023-06-26T14:53:23;30.98;42.42
68274;SHT30;55104;47.356;19.448;2023-06-26T14:56:26;31.38;41.39
68274;SHT30;55104;47.356;19.448;2023-06-26T14:59:28;31.41;42.31
68274;SHT30;55104;47.356;19.448;2023-06-26T15:02:30;31.10;41.79
68274;SHT30;55104;47.356;19.448;2023-06-26T15:05:33;31.27;42.92
68274;SHT30;55104;47.356;19.448;2023-06-26T15:08:35;30.98;41.89
68274;SHT30;55104;47.356;19.448;2023-06-26T15:11:37;31.15;42.79
68274;SHT30;55104;47.356;19.448;2023-06-26T15:14:39;30.93;43.25
68274;SHT30;55104;47.356;19.448;2023-06-26T15:17:41;31.10;42.50
68274;SHT30;55104;47.356;19.448;2023-06-26T15:20:43;30.95;42.14
68274;SHT30;55104;47.356;19.448;2023-06-26T15:23:46;30.92;42.12
68274;SHT30;55104;47.356;19.448;2023-06-26T15:26:48;31.03;42.19
68274;SHT30;55104;47.356;19.448;2023-06-26T15:29:50;30.60;41.66
68274;SHT30;55104;47.356;19.448;2023-06-26T15:32:52;30.64;42.45
68274;SHT30;55104;47.356;19.448;2023-06-26T15:35:55;30.95;42.82
68274;SHT30;55104;47.356;19.448;2023-06-26T15:38:57;30.43;42.70
68274;SHT30;55104;47.356;19.448;2023-06-26T15:41:59;30.48;42.82
68274;SHT30;55104;47.356;19.448;2023-06-26T15:45:01;29.92;44.97
68274;SHT30;55104;47.356;19.448;2023-06-26T15:48:03;29.54;44.40
68274;SHT30;55104;47.356;19.448;2023-06-26T15:51:05;29.41;45.25
68274;SHT30;55104;47.356;19.448;2023-06-26T15:54:07;29.14;45.05
68274;SHT30;55104;47.356;19.448;2023-06-26T15:57:09;29.43;44.71
68274;SHT30;55104;47.356;19.448;2023-06-26T16:00:12;29.61;46.26
68274;SHT30;55104;47.356;19.448;2023-06-26T16:03:15;29.72;44.57
68274;SHT30;55104;47.356;19.448;2023-06-26T16:06:17;29.51;45.34
68274;SHT30;55104;47.356;19.448;2023-06-26T16:09:19;29.57;43.83
68274;SHT30;55104;47.356;19.448;2023-06-26T16:12:23;29.63;44.72
68274;SHT30;55104;47.356;19.448;2023-06-26T16:15:25;29.48;44.06
68274;SHT30;55104;47.356;19.448;2023-06-26T16:18:27;29.39;44.73
68274;SHT30;55104;47.356;19.448;2023-06-26T16:21:29;29.58;46.05
68274;SHT30;55104;47.356;19.448;2023-06-26T16:24:31;29.61;45.76
68274;SHT30;55104;47.356;19.448;2023-06-26T16:27:33;29.33;45.21
68274;SHT30;55104;47.356;19.448;2023-06-26T16:30:35;29.27;46.93
68274;SHT30;55104;47.356;19.448;2023-06-26T16:33:37;29.16;47.08
68274;SHT30;55104;47.356;19.448;2023-06-26T16:36:39;28.82;46.52
68274;SHT30;55104;47.356;19.448;2023-06-26T16:39:42;28.68;49.12
68274;SHT30;55104;47.356;19.448;2023-06-26T16:42:44;28.37;48.42
68274;SHT30;55104;47.356;19.448;2023-06-26T16:45:46;28.04;48.71
68274;SHT30;55104;47.356;19.448;2023-06-26T16:48:48;27.93;49.72
68274;SHT30;55104;47.356;19.448;2023-06-26T16:51:51;27.86;50.08
68274;SHT30;55104;47.356;19.448;2023-06-26T16:54:57;27.58;49.51
68274;SHT30;55104;47.356;19.448;2023-06-26T16:57:59;27.58;50.54
68274;SHT30;55104;47.356;19.448;2023-06-26T17:01:01;27.53;50.75
68274;SHT30;55104;47.356;19.448;2023-06-26T17:04:04;27.43;51.33
68274;SHT30;55104;47.356;19.448;2023-06-26T17:07:06;27.28;51.91
68274;SHT30;55104;47.356;19.448;2023-06-26T17:10:08;27.31;51.84
68274;SHT30;55104;47.356;19.448;2023-06-26T17:13:11;27.17;52.49
68274;SHT30;55104;47.356;19.448;2023-06-26T17:16:13;27.04;53.40
68274;SHT30;55104;47.356;19.448;2023-06-26T17:19:15;26.93;53.87
68274;SHT30;55104;47.356;19.448;2023-06-26T17:22:17;26.84;54.49
68274;SHT30;55104;47.356;19.448;2023-06-26T17:25:19;26.83;55.24
68274;SHT30;55104;47.356;19.448;2023-06-26T17:28:21;26.79;54.84
68274;SHT30;55104;47.356;19.448;2023-06-26T17:31:23;26.75;55.34
68274;SHT30;55104;47.356;19.448;2023-06-26T17:34:25;26.77;55.81
68274;SHT30;55104;47.356;19.448;2023-06-26T17:37:27;26.73;56.12
68274;SHT30;55104;47.356;19.448;2023-06-26T17:40:30;26.72;55.96
68274;SHT30;55104;47.356;19.448;2023-06-26T17:43:32;26.68;55.89
68274;SHT30;55104;47.356;19.448;2023-06-26T17:46:34;26.60;56.35
68274;SHT30;55104;47.356;19.448;2023-06-26T17:49:36;26.46;57.35
68274;SHT30;55104;47.356;19.448;2023-06-26T17:52:39;26.36;58.92
68274;SHT30;55104;47.356;19.448;2023-06-26T17:55:41;26.21;57.87
68274;SHT30;55104;47.356;19.448;2023-06-26T17:58:43;26.05;57.79
68274;SHT30;55104;47.356;19.448;2023-06-26T18:01:45;25.96;58.41
68274;SHT30;55104;47.356;19.448;2023-06-26T18:04:47;25.87;59.50
68274;SHT30;55104;47.356;19.448;2023-06-26T18:07:49;25.70;60.61
68274;SHT30;55104;47.356;19.448;2023-06-26T18:11:04;25.54;61.79
68274;SHT30;55104;47.356;19.448;2023-06-26T18:14:06;25.42;61.22
68274;SHT30;55104;47.356;19.448;2023-06-26T18:17:09;25.31;61.82
68274;SHT30;55104;47.356;19.448;2023-06-26T18:20:11;25.29;62.35
68274;SHT30;55104;47.356;19.448;2023-06-26T18:23:13;25.19;63.08
68274;SHT30;55104;47.356;19.448;2023-06-26T18:26:16;25.07;64.12
68274;SHT30;55104;47.356;19.448;2023-06-26T18:29:18;24.95;65.49
68274;SHT30;55104;47.356;19.448;2023-06-26T18:32:20;24.84;65.39
68274;SHT30;55104;47.356;19.448;2023-06-26T18:35:22;24.73;66.55
68274;SHT30;55104;47.356;19.448;2023-06-26T18:38:24;24.56;67.16
68274;SHT30;55104;47.356;19.448;2023-06-26T18:41:26;24.40;68.02
68274;SHT30;55104;47.356;19.448;2023-06-26T18:44:28;24.26;68.65
68274;SHT30;55104;47.356;19.448;2023-06-26T18:47:30;24.14;68.84
68274;SHT30;55104;47.356;19.448;2023-06-26T18:50:32;24.02;69.17
68274;SHT30;55104;47.356;19.448;2023-06-26T18:53:35;23.87;70.53
68274;SHT30;55104;47.356;19.448;2023-06-26T18:56:37;23.70;71.17
68274;SHT30;55104;47.356;19.448;2023-06-26T18:59:39;23.64;70.80
68274;SHT30;55104;47.356;19.448;2023-06-26T19:02:41;23.54;71.35
68274;SHT30;55104;47.356;19.448;2023-06-26T19:05:43;23.42;71.60